Time;durP1;ratioP1;P1;durP2;ratioP2;P2;SDS_P1;SDS_P2;PMS_P1;PMS_P2;Temp;Humidity;BMP_temperature;BMP_pressure;BME280_temperature;BME280_humidity;BME280_pressure;Samples;Min_cycle;Max_cycle;Signal;HPM_P1;HPM_P2
2022/06/17 00:01:03;;;;;;;17.17;9.60;;;;;;;;;;5008860;28;20053;-62
2022/06/17 00:03:31;;;;;;;17.30;8.93;;;;;;;;;;5007555;28;20853;-61
2022/06/17 00:05:58;;;;;;;16.95;8.85;;;;;;;;;;5008331;28;20057;-62
2022/06/17 00:08:26;;;;;;;17.48;9.10;;;;;;;;;;5008998;28;20032;-62
2022/06/17 00:10:53;;;;;;;18.67;9.48;;;;;;;;;;5011408;28;20018;-62
2022/06/17 00:13:19;;;;;;;15.73;8.68;;;;;;;;;;5012228;28;20022;-61
2022/06/17 00:15:46;;;;;;;16.55;9.07;;;;;;;;;;5012332;28;20029;-63
2022/06/17 00:18:16;;;;;;;18.08;9.70;;;;;;;;;;5011618;28;20026;-61
2022/06/17 00:20:42;;;;;;;16.10;9.40;;;;;;;;;;5010414;28;20026;-63
2022/06/17 00:23:20;;;;;;;17.33;8.95;;;;;;;;;;5011931;28;20026;-62
2022/06/17 00:25:46;;;;;;;16.38;9.05;;;;;;;;;;5012117;28;20068;-63
2022/06/17 00:28:20;;;;;;;16.80;9.20;;;;;;;;;;5011941;28;20026;-63
2022/06/17 00:30:46;;;;;;;19.02;9.50;;;;;;;;;;5012426;28;20030;-63
2022/06/17 00:33:16;;;;;;;16.35;9.32;;;;;;;;;;5012431;28;20091;-63
2022/06/17 00:35:44;;;;;;;17.80;9.05;;;;;;;;;;5055852;23;20049;-61
2022/06/17 00:38:13;;;;;;;17.07;9.33;;;;;;;;;;5028469;28;20029;-62
2022/06/17 00:40:39;;;;;;;16.65;9.10;;;;;;;;;;5029503;28;20268;-61
2022/06/17 00:43:07;;;;;;;16.85;9.90;;;;;;;;;;5030801;28;20237;-62
2022/06/17 00:45:49;;;;;;;19.67;10.10;;;;;;;;;;5029429;28;20481;-62
2022/06/17 00:48:19;;;;;;;17.50;9.90;;;;;;;;;;5029939;28;20059;-61
2022/06/17 00:50:59;;;;;;;18.23;9.90;;;;;;;;;;5030843;28;20049;-62
2022/06/17 00:53:26;;;;;;;16.92;9.43;;;;;;;;;;5030482;28;20101;-61
2022/06/17 00:55:53;;;;;;;18.05;9.70;;;;;;;;;;5030616;28;20032;-61
2022/06/17 00:58:20;;;;;;;18.05;9.48;;;;;;;;;;5029674;28;20030;-61
2022/06/17 01:00:46;;;;;;;19.08;10.27;;;;;;;;;;5030192;28;20032;-63
2022/06/17 01:03:18;;;;;;;24.15;10.55;;;;;;;;;;5030513;28;20112;-62
2022/06/17 01:05:49;;;;;;;20.40;10.38;;;;;;;;;;5029146;28;20025;-61
2022/06/17 01:11:11;;;;;;;17.77;9.90;;;;;;;;;;5030703;28;20501;-62
2022/06/17 01:13:38;;;;;;;19.63;11.65;;;;;;;;;;5030501;28;20159;-63
2022/06/17 01:16:05;;;;;;;20.13;10.73;;;;;;;;;;5030471;28;20073;-62
2022/06/17 01:18:31;;;;;;;20.67;10.32;;;;;;;;;;5031956;28;20028;-58
2022/06/17 01:21:01;;;;;;;17.70;9.65;;;;;;;;;;5034567;28;20025;-61
2022/06/17 01:23:27;;;;;;;19.65;9.82;;;;;;;;;;5032954;28;20502;-61
2022/06/17 01:25:53;;;;;;;22.23;11.15;;;;;;;;;;5033980;28;20061;-62
2022/06/17 01:28:19;;;;;;;18.15;10.27;;;;;;;;;;5033596;28;20101;-60
2022/06/17 01:30:46;;;;;;;20.55;11.30;;;;;;;;;;5032635;28;20469;-62
2022/06/17 01:33:12;;;;;;;18.83;10.32;;;;;;;;;;5033849;28;20029;-62
2022/06/17 01:35:42;;;;;;;17.70;10.20;;;;;;;;;;5032390;28;20068;-62
2022/06/17 01:38:08;;;;;;;19.35;9.93;;;;;;;;;;5031666;28;20028;-62
2022/06/17 01:40:35;;;;;;;19.40;9.27;;;;;;;;;;5032351;28;20060;-61
2022/06/17 01:43:02;;;;;;;17.35;8.90;;;;;;;;;;5032441;28;20064;-62
2022/06/17 01:45:29;;;;;;;18.73;10.18;;;;;;;;;;5032375;28;20382;-62
2022/06/17 01:47:55;;;;;;;17.67;9.27;;;;;;;;;;5033024;28;20030;-62
2022/06/17 01:50:26;;;;;;;22.67;9.90;;;;;;;;;;5033581;28;20036;-62
2022/06/17 01:53:08;;;;;;;22.25;9.40;;;;;;;;;;5033650;28;20100;-62
2022/06/17 01:55:37;;;;;;;18.23;9.38;;;;;;;;;;5033689;28;20488;-62
2022/06/17 01:58:16;;;;;;;17.75;9.60;;;;;;;;;;5032796;28;20028;-62
2022/06/17 02:00:42;;;;;;;19.35;10.00;;;;;;;;;;5032219;28;20026;-62
2022/06/17 02:03:14;;;;;;;19.45;10.63;;;;;;;;;;5033438;28;20385;-63
2022/06/17 02:05:42;;;;;;;18.77;9.93;;;;;;;;;;5033198;28;20029;-61
2022/06/17 02:08:08;;;;;;;18.85;9.32;;;;;;;;;;4335419;28;10000729;-63
2022/06/17 02:10:39;;;;;;;17.50;10.48;;;;;;;;;;5032555;28;20030;-62
2022/06/17 02:13:06;;;;;;;21.65;10.10;;;;;;;;;;5032446;28;20033;-62
2022/06/17 02:15:33;;;;;;;19.55;10.02;;;;;;;;;;5031723;28;20036;-62
2022/06/17 02:18:00;;;;;;;20.23;11.38;;;;;;;;;;5032305;28;20443;-61
2022/06/17 02:20:26;;;;;;;19.30;11.38;;;;;;;;;;5033065;28;20389;-63
2022/06/17 02:22:53;;;;;;;18.05;9.85;;;;;;;;;;5032898;28;20022;-62
2022/06/17 02:25:21;;;;;;;17.95;9.77;;;;;;;;;;5031565;28;20026;-62
2022/06/17 02:27:50;;;;;;;18.65;11.02;;;;;;;;;;5031054;28;20079;-62
2022/06/17 02:30:16;;;;;;;17.75;10.77;;;;;;;;;;5032468;28;20033;-62
2022/06/17 02:32:43;;;;;;;18.38;9.95;;;;;;;;;;5032683;28;20106;-62
2022/06/17 02:35:09;;;;;;;18.35;10.48;;;;;;;;;;5032718;28;20056;-62
2022/06/17 02:37:35;;;;;;;19.55;10.25;;;;;;;;;;5032253;28;20394;-62
2022/06/17 02:40:02;;;;;;;18.63;10.00;;;;;;;;;;5032428;28;20026;-61
2022/06/17 02:42:30;;;;;;;17.42;9.90;;;;;;;;;;5032751;28;20122;-62
2022/06/17 02:44:58;;;;;;;16.80;9.60;;;;;;;;;;5032627;28;20558;-62
2022/06/17 02:47:25;;;;;;;18.63;10.38;;;;;;;;;;5031746;28;20485;-62
2022/06/17 02:49:52;;;;;;;19.13;10.25;;;;;;;;;;5032645;28;20029;-62
2022/06/17 02:52:20;;;;;;;17.58;9.82;;;;;;;;;;5031332;28;20489;-62
2022/06/17 02:54:53;;;;;;;20.05;10.02;;;;;;;;;;5032623;28;20030;-61
2022/06/17 02:57:24;;;;;;;20.75;10.23;;;;;;;;;;5032129;28;20061;-62
2022/06/17 02:59:52;;;;;;;19.02;10.90;;;;;;;;;;5032419;28;20025;-61
2022/06/17 03:02:23;;;;;;;19.55;10.57;;;;;;;;;;5032425;28;20049;-62
2022/06/17 03:04:49;;;;;;;21.05;10.50;;;;;;;;;;5032293;28;20120;-62
2022/06/17 03:07:17;;;;;;;20.08;11.57;;;;;;;;;;5031756;28;20397;-62
2022/06/17 03:09:43;;;;;;;20.42;11.48;;;;;;;;;;5031757;28;20025;-63
2022/06/17 03:12:35;;;;;;;22.38;12.43;;;;;;;;;;5032166;28;20049;-62
2022/06/17 03:15:01;;;;;;;19.92;11.90;;;;;;;;;;5029211;28;20089;-62
2022/06/17 03:17:27;;;;;;;20.83;11.38;;;;;;;;;;5030310;28;20024;-62
2022/06/17 03:19:54;;;;;;;19.75;12.38;;;;;;;;;;5030563;28;20048;-62
2022/06/17 03:22:21;;;;;;;19.70;12.00;;;;;;;;;;5032260;28;20060;-62
2022/06/17 03:24:50;;;;;;;21.60;13.00;;;;;;;;;;5032339;28;20041;-63
2022/06/17 03:27:23;;;;;;;19.70;11.93;;;;;;;;;;5031854;28;20086;-61
2022/06/17 03:29:49;;;;;;;23.45;11.77;;;;;;;;;;5032669;28;20026;-62
2022/06/17 03:32:18;;;;;;;26.23;13.00;;;;;;;;;;5032603;28;20072;-62
2022/06/17 03:34:44;;;;;;;;;;;;;;;;;;5032543;28;20041;-62
2022/06/17 03:37:13;;;;;;;19.55;12.80;;;;;;;;;;5031753;28;19958;-61
2022/06/17 03:39:44;;;;;;;21.20;12.57;;;;;;;;;;5032046;28;20021;-62
2022/06/17 03:42:31;;;;;;;20.58;11.80;;;;;;;;;;5031891;28;20100;-62
2022/06/17 03:45:17;;;;;;;21.92;11.43;;;;;;;;;;5021394;28;20440;-63
2022/06/17 03:47:47;;;;;;;20.77;11.10;;;;;;;;;;5030912;28;20052;-62
2022/06/17 03:50:20;;;;;;;19.48;11.50;;;;;;;;;;5031726;28;20049;-62
2022/06/17 03:52:55;;;;;;;20.88;12.88;;;;;;;;;;5031613;28;20558;-63
2022/06/17 03:55:21;;;;;;;19.00;12.43;;;;;;;;;;5031999;28;20477;-62
2022/06/17 03:57:50;;;;;;;18.90;11.88;;;;;;;;;;5031004;28;20064;-62
2022/06/17 04:00:36;;;;;;;22.42;12.25;;;;;;;;;;5031716;28;20029;-61
2022/06/17 04:03:04;;;;;;;20.17;11.77;;;;;;;;;;5021860;28;20103;-62
2022/06/17 04:05:31;;;;;;;20.85;12.27;;;;;;;;;;5032020;28;20029;-62
2022/06/17 04:07:57;;;;;;;20.38;12.73;;;;;;;;;;5031278;28;20025;-61
2022/06/17 04:10:24;;;;;;;22.67;14.52;;;;;;;;;;5031792;28;20437;-62
2022/06/17 04:12:51;;;;;;;19.13;12.20;;;;;;;;;;5031984;28;20025;-59
2022/06/17 04:15:26;;;;;;;21.25;12.85;;;;;;;;;;5032277;28;20051;-62
2022/06/17 04:17:53;;;;;;;21.88;13.18;;;;;;;;;;5031378;28;20491;-63
2022/06/17 04:20:38;;;;;;;19.50;12.52;;;;;;;;;;5032780;28;20036;-62
2022/06/17 04:23:16;;;;;;;21.63;12.23;;;;;;;;;;5030399;28;20033;-62
2022/06/17 04:25:54;;;;;;;19.03;11.93;;;;;;;;;;5031890;28;20025;-63
2022/06/17 04:28:21;;;;;;;18.73;12.45;;;;;;;;;;5031040;28;20025;-63
2022/06/17 04:30:50;;;;;;;19.50;12.82;;;;;;;;;;5031235;28;20026;-62
2022/06/17 04:33:21;;;;;;;20.40;13.43;;;;;;;;;;5031651;28;20045;-62
2022/06/17 04:35:47;;;;;;;20.52;12.93;;;;;;;;;;5029785;28;20036;-62
2022/06/17 04:38:13;;;;;;;19.00;12.73;;;;;;;;;;5029253;28;20032;-57
2022/06/17 04:40:44;;;;;;;19.83;12.82;;;;;;;;;;5030163;28;20112;-62
2022/06/17 04:43:29;;;;;;;21.23;13.18;;;;;;;;;;5031244;28;20116;-62
2022/06/17 04:46:11;;;;;;;21.23;13.45;;;;;;;;;;5031140;28;20040;-63
2022/06/17 04:48:37;;;;;;;18.20;12.27;;;;;;;;;;5030255;28;20152;-62
2022/06/17 04:51:04;;;;;;;25.23;13.20;;;;;;;;;;5031024;28;20021;-62
2022/06/17 04:53:31;;;;;;;17.77;12.48;;;;;;;;;;5035341;28;20033;-63
2022/06/17 04:55:57;;;;;;;19.63;14.32;;;;;;;;;;5034504;28;20435;-62
2022/06/17 04:58:24;;;;;;;23.05;14.50;;;;;;;;;;5034345;28;20025;-63
2022/06/17 05:00:54;;;;;;;20.77;13.13;;;;;;;;;;5034961;28;20482;-62
2022/06/17 05:03:20;;;;;;;21.63;13.13;;;;;;;;;;5035259;28;20108;-63
2022/06/17 05:05:46;;;;;;;20.70;12.82;;;;;;;;;;5034780;28;20040;-63
2022/06/17 05:08:20;;;;;;;20.40;13.07;;;;;;;;;;5034218;28;20397;-62
2022/06/17 05:10:49;;;;;;;17.63;12.65;;;;;;;;;;5034620;28;20461;-63
2022/06/17 05:13:31;;;;;;;20.20;12.70;;;;;;;;;;5034957;28;20056;-63
2022/06/17 05:15:57;;;;;;;23.45;14.20;;;;;;;;;;5034436;28;20033;-62
2022/06/17 05:18:23;;;;;;;20.80;14.88;;;;;;;;;;5033699;28;20034;-64
2022/06/17 05:20:49;;;;;;;21.02;14.02;;;;;;;;;;5034862;28;20069;-62
2022/06/17 05:23:16;;;;;;;20.42;13.93;;;;;;;;;;5034867;28;20037;-62
2022/06/17 05:25:43;;;;;;;20.88;13.32;;;;;;;;;;5034368;28;20031;-63
2022/06/17 05:28:13;;;;;;;18.05;12.00;;;;;;;;;;5033702;28;20026;-61
2022/06/17 05:30:41;;;;;;;24.20;13.30;;;;;;;;;;5033092;28;20027;-62
2022/06/17 05:33:07;;;;;;;18.80;12.43;;;;;;;;;;5033014;28;20504;-63
2022/06/17 05:35:33;;;;;;;19.17;12.82;;;;;;;;;;5034770;28;20026;-62
2022/06/17 05:37:59;;;;;;;22.88;15.82;;;;;;;;;;5031838;28;20480;-62
2022/06/17 05:40:26;;;;;;;20.92;12.43;;;;;;;;;;5033691;28;20025;-64
2022/06/17 05:42:52;;;;;;;19.23;12.80;;;;;;;;;;5034340;28;20022;-63
2022/06/17 05:45:23;;;;;;;19.88;12.68;;;;;;;;;;5034048;28;20043;-63
2022/06/17 05:47:48;;;;;;;18.73;12.30;;;;;;;;;;5032341;28;20112;-61
2022/06/17 05:50:15;;;;;;;17.90;11.95;;;;;;;;;;5034196;28;20490;-62
2022/06/17 05:52:52;;;;;;;19.60;12.77;;;;;;;;;;5033582;28;20087;-63
2022/06/17 05:55:18;;;;;;;18.80;12.02;;;;;;;;;;5033654;28;20021;-63
2022/06/17 05:57:44;;;;;;;19.90;13.07;;;;;;;;;;5033489;28;20532;-62
2022/06/17 06:00:11;;;;;;;18.92;12.70;;;;;;;;;;5034050;28;20026;-62
2022/06/17 06:02:37;;;;;;;18.80;12.38;;;;;;;;;;5033641;28;20401;-62
2022/06/17 06:05:03;;;;;;;19.17;12.30;;;;;;;;;;5033100;28;20025;-60
2022/06/17 06:07:29;;;;;;;21.10;13.20;;;;;;;;;;5033086;28;20029;-62
2022/06/17 06:09:55;;;;;;;16.45;11.93;;;;;;;;;;5032490;28;20103;-62
2022/06/17 06:12:21;;;;;;;19.45;12.95;;;;;;;;;;5034026;28;20433;-62
2022/06/17 06:14:47;;;;;;;17.80;12.48;;;;;;;;;;5033602;28;20026;-62
2022/06/17 06:17:13;;;;;;;18.20;12.80;;;;;;;;;;5033239;28;20092;-61
2022/06/17 06:19:39;;;;;;;18.48;12.63;;;;;;;;;;5029423;28;20053;-62
2022/06/17 06:22:05;;;;;;;17.83;11.93;;;;;;;;;;5024928;28;20044;-62
2022/06/17 06:24:31;;;;;;;18.55;12.52;;;;;;;;;;5024923;28;20022;-62
2022/06/17 06:26:57;;;;;;;18.17;12.80;;;;;;;;;;5032338;28;20048;-62
2022/06/17 06:29:23;;;;;;;21.25;12.57;;;;;;;;;;5017401;28;20549;-62
2022/06/17 06:31:49;;;;;;;18.80;12.40;;;;;;;;;;5012904;28;20089;-63
2022/06/17 06:34:16;;;;;;;18.55;12.20;;;;;;;;;;5038448;22;20434;-61
2022/06/17 06:36:42;;;;;;;19.10;12.40;;;;;;;;;;5012558;28;20036;-61
2022/06/17 06:39:08;;;;;;;17.77;12.30;;;;;;;;;;5013100;28;20117;-62
2022/06/17 06:41:35;;;;;;;17.63;12.25;;;;;;;;;;5013975;28;20100;-61
2022/06/17 06:44:01;;;;;;;18.13;13.07;;;;;;;;;;5013811;28;20505;-59
2022/06/17 06:46:27;;;;;;;17.30;12.13;;;;;;;;;;5012325;28;20112;-61
2022/06/17 06:48:53;;;;;;;19.65;12.38;;;;;;;;;;5012561;28;20141;-60
2022/06/17 06:51:20;;;;;;;17.30;12.02;;;;;;;;;;5013702;28;20033;-61
2022/06/17 06:53:46;;;;;;;19.05;13.23;;;;;;;;;;5013801;28;20049;-62
2022/06/17 06:56:12;;;;;;;18.55;12.63;;;;;;;;;;5013800;28;20045;-60
2022/06/17 06:58:38;;;;;;;18.10;12.90;;;;;;;;;;4692100;28;10000404;-62
2022/06/17 07:01:04;;;;;;;19.52;12.98;;;;;;;;;;5048771;28;20489;-61
2022/06/17 07:03:31;;;;;;;19.33;12.77;;;;;;;;;;5050413;28;20045;-62
2022/06/17 07:05:58;;;;;;;21.58;12.63;;;;;;;;;;5050619;28;20082;-62
2022/06/17 07:08:25;;;;;;;18.17;12.13;;;;;;;;;;5049603;28;20047;-62
2022/06/17 07:10:53;;;;;;;17.45;11.65;;;;;;;;;;5050493;28;20113;-62
2022/06/17 07:13:21;;;;;;;16.98;12.15;;;;;;;;;;5033766;28;20374;-63
2022/06/17 07:15:47;;;;;;;16.75;12.10;;;;;;;;;;5050410;28;20052;-62
2022/06/17 07:18:13;;;;;;;18.80;12.95;;;;;;;;;;5033039;28;20040;-59
2022/06/17 07:20:42;;;;;;;18.40;12.65;;;;;;;;;;5049977;28;20037;-61
2022/06/17 07:23:10;;;;;;;19.13;12.32;;;;;;;;;;5050391;28;20035;-61
2022/06/17 07:25:36;;;;;;;18.13;12.48;;;;;;;;;;5049994;28;20575;-62
2022/06/17 07:28:03;;;;;;;20.60;12.85;;;;;;;;;;5049416;28;20029;-62
2022/06/17 07:30:29;;;;;;;17.95;12.95;;;;;;;;;;5027611;28;20034;-62
2022/06/17 07:32:55;;;;;;;18.13;12.38;;;;;;;;;;5012702;28;20096;-62
2022/06/17 07:35:21;;;;;;;18.67;12.93;;;;;;;;;;5012707;28;20033;-62
2022/06/17 07:40:34;;;;;;;16.95;11.90;;;;;;;;;;5012977;28;20029;-62
2022/06/17 07:43:00;;;;;;;21.40;12.90;;;;;;;;;;5028074;28;20046;-63
2022/06/17 07:45:26;;;;;;;17.60;12.10;;;;;;;;;;5012353;28;20478;-62
2022/06/17 07:47:53;;;;;;;18.92;12.88;;;;;;;;;;5012406;28;20036;-62
2022/06/17 07:50:22;;;;;;;16.55;12.25;;;;;;;;;;5027592;28;20057;-63
2022/06/17 07:52:48;;;;;;;19.00;12.68;;;;;;;;;;5012411;28;20101;-62
2022/06/17 07:55:14;;;;;;;18.15;12.52;;;;;;;;;;5012257;28;20037;-62
2022/06/17 07:57:40;;;;;;;17.95;12.70;;;;;;;;;;5011407;28;20045;-60
2022/06/17 08:00:08;;;;;;;19.05;12.70;;;;;;;;;;5012147;28;20131;-63
2022/06/17 08:02:34;;;;;;;18.92;13.25;;;;;;;;;;5012554;28;20390;-62
2022/06/17 08:05:00;;;;;;;17.23;13.10;;;;;;;;;;5012237;28;20026;-62
2022/06/17 08:07:28;;;;;;;19.13;13.32;;;;;;;;;;5011429;28;20026;-62
2022/06/17 08:09:54;;;;;;;20.55;12.68;;;;;;;;;;5012043;28;20072;-62
2022/06/17 08:12:20;;;;;;;17.92;12.88;;;;;;;;;;5012269;28;20028;-61
2022/06/17 08:14:47;;;;;;;19.30;13.35;;;;;;;;;;5011900;28;20105;-63
2022/06/17 08:17:15;;;;;;;20.60;13.27;;;;;;;;;;5026621;28;20438;-62
2022/06/17 08:19:43;;;;;;;19.08;13.35;;;;;;;;;;5012386;28;20052;-64
2022/06/17 08:22:09;;;;;;;;;;;;;;;;;;5012608;28;20045;-57
2022/06/17 08:24:35;;;;;;;18.30;12.70;;;;;;;;;;5012065;28;19909;-67
2022/06/17 08:27:01;;;;;;;18.38;13.05;;;;;;;;;;5026630;28;20029;-66
2022/06/17 08:29:28;;;;;;;18.42;13.73;;;;;;;;;;5011512;28;20497;-67
2022/06/17 08:31:55;;;;;;;22.52;14.90;;;;;;;;;;5012310;28;20022;-67
2022/06/17 08:34:21;;;;;;;17.27;12.55;;;;;;;;;;5027390;28;20064;-67
2022/06/17 08:36:48;;;;;;;19.83;13.77;;;;;;;;;;5012290;28;20026;-67
2022/06/17 08:39:15;;;;;;;20.60;12.82;;;;;;;;;;5011283;28;20030;-67
2022/06/17 08:41:46;;;;;;;21.13;13.38;;;;;;;;;;5012181;28;20104;-67
2022/06/17 08:44:33;;;;;;;20.98;12.48;;;;;;;;;;5027396;28;20414;-67
2022/06/17 08:46:59;;;;;;;18.08;12.48;;;;;;;;;;5012047;28;20102;-65
2022/06/17 08:49:25;;;;;;;17.90;12.40;;;;;;;;;;5011268;28;20546;-66
2022/06/17 08:51:57;;;;;;;17.77;12.48;;;;;;;;;;5027038;28;20033;-66
2022/06/17 08:54:23;;;;;;;21.90;12.55;;;;;;;;;;5012113;28;20022;-66
2022/06/17 08:57:04;;;;;;;16.20;12.20;;;;;;;;;;5011934;28;20141;-58
2022/06/17 08:59:36;;;;;;;16.25;11.88;;;;;;;;;;5026369;28;20049;-59
2022/06/17 09:02:06;;;;;;;17.15;12.15;;;;;;;;;;5026946;28;20026;-61
2022/06/17 09:04:38;;;;;;;18.42;12.88;;;;;;;;;;5011473;28;20402;-58
2022/06/17 09:07:07;;;;;;;19.55;11.90;;;;;;;;;;5011444;28;20026;-59
2022/06/17 09:09:51;;;;;;;18.38;12.07;;;;;;;;;;5011025;28;20034;-59
2022/06/17 09:12:36;;;;;;;19.92;11.73;;;;;;;;;;5026789;28;20385;-59
2022/06/17 09:15:22;;;;;;;18.20;12.13;;;;;;;;;;5011139;28;20032;-61
2022/06/17 09:17:59;;;;;;;17.00;11.50;;;;;;;;;;5025843;28;20022;-60
2022/06/17 09:20:30;;;;;;;19.02;11.73;;;;;;;;;;5011631;28;20494;-61
2022/06/17 09:22:58;;;;;;;16.45;11.80;;;;;;;;;;5011466;28;20371;-56
2022/06/17 09:25:27;;;;;;;18.65;11.82;;;;;;;;;;5011114;28;20034;-61
2022/06/17 09:27:54;;;;;;;18.45;12.10;;;;;;;;;;5011019;28;20030;-60
2022/06/17 09:30:24;;;;;;;19.15;12.93;;;;;;;;;;5011621;28;20030;-58
2022/06/17 09:32:55;;;;;;;16.98;11.70;;;;;;;;;;5011440;28;20478;-57
2022/06/17 09:35:36;;;;;;;17.40;11.52;;;;;;;;;;5011582;28;20033;-58
2022/06/17 09:38:14;;;;;;;18.35;11.70;;;;;;;;;;5010880;28;20030;-59
2022/06/17 09:40:57;;;;;;;17.23;11.25;;;;;;;;;;5015067;28;20033;-60
2022/06/17 09:43:42;;;;;;;16.10;11.60;;;;;;;;;;5015327;28;20030;-59
2022/06/17 09:46:23;;;;;;;18.65;11.13;;;;;;;;;;5015310;28;20057;-60
2022/06/17 09:48:52;;;;;;;18.58;12.55;;;;;;;;;;5014500;28;20033;-58
2022/06/17 09:51:28;;;;;;;18.45;11.35;;;;;;;;;;5014552;28;20069;-56
2022/06/17 09:53:57;;;;;;;18.90;11.13;;;;;;;;;;5014885;28;20129;-61
2022/06/17 09:56:31;;;;;;;16.10;10.80;;;;;;;;;;5009187;28;20501;-59
2022/06/17 09:58:57;;;;;;;18.27;11.35;;;;;;;;;;4994386;28;20026;-59
2022/06/17 10:01:24;;;;;;;18.77;11.18;;;;;;;;;;4994944;28;20030;-58
2022/06/17 10:03:50;;;;;;;17.27;11.23;;;;;;;;;;4994799;28;20089;-60
2022/06/17 10:06:25;;;;;;;15.70;11.30;;;;;;;;;;4993410;28;20026;-59
2022/06/17 10:08:51;;;;;;;20.42;12.38;;;;;;;;;;4993988;28;20113;-60
2022/06/17 10:11:25;;;;;;;22.58;11.90;;;;;;;;;;4994614;28;20110;-63
2022/06/17 10:14:13;;;;;;;16.35;11.38;;;;;;;;;;4994886;28;20027;-62
2022/06/17 10:19:42;;;;;;;16.98;11.00;;;;;;;;;;4994425;28;20417;-63
2022/06/17 10:22:09;;;;;;;16.75;10.63;;;;;;;;;;5006552;28;20026;-62
2022/06/17 10:24:38;;;;;;;16.58;11.32;;;;;;;;;;5014129;28;20470;-62
2022/06/17 10:27:07;;;;;;;16.23;11.15;;;;;;;;;;5013604;28;20041;-59
2022/06/17 10:29:33;;;;;;;16.05;10.80;;;;;;;;;;5013599;28;20478;-60
2022/06/17 10:31:59;;;;;;;16.90;11.10;;;;;;;;;;5012219;28;20026;-62
2022/06/17 10:34:32;;;;;;;17.10;10.70;;;;;;;;;;5029137;28;20033;-62
2022/06/17 10:37:01;;;;;;;15.90;11.07;;;;;;;;;;5013763;28;20028;-62
2022/06/17 10:39:27;;;;;;;;;;;;;;;;;;5013850;28;20080;-62
2022/06/17 10:41:53;;;;;;;17.27;11.38;;;;;;;;;;5012296;28;20302;-61
2022/06/17 10:44:21;;;;;;;15.98;11.27;;;;;;;;;;5013436;28;20064;-62
2022/06/17 10:46:52;;;;;;;17.63;11.32;;;;;;;;;;5013633;28;20032;-61
2022/06/17 10:49:21;;;;;;;15.88;10.77;;;;;;;;;;5012409;28;20034;-62
2022/06/17 10:51:48;;;;;;;16.00;10.93;;;;;;;;;;5013341;28;20046;-62
2022/06/17 10:54:18;;;;;;;17.73;12.20;;;;;;;;;;5013394;28;20026;-61
2022/06/17 10:56:50;;;;;;;16.27;11.50;;;;;;;;;;5028279;28;20056;-63
2022/06/17 10:59:29;;;;;;;15.90;11.23;;;;;;;;;;5012714;28;20026;-62
2022/06/17 11:01:56;;;;;;;16.65;11.48;;;;;;;;;;5013335;28;20056;-61
2022/06/17 11:04:34;;;;;;;15.77;10.15;;;;;;;;;;5013653;28;20362;-62
2022/06/17 11:07:17;;;;;;;17.20;11.45;;;;;;;;;;5013380;28;20391;-62
2022/06/17 11:09:48;;;;;;;16.42;11.15;;;;;;;;;;5013168;28;20144;-63
2022/06/17 11:12:21;;;;;;;17.30;12.20;;;;;;;;;;5028210;28;20053;-62
2022/06/17 11:14:47;;;;;;;15.20;11.40;;;;;;;;;;5027982;28;20112;-63
2022/06/17 11:17:16;;;;;;;17.23;11.20;;;;;;;;;;5027453;28;20029;-63
2022/06/17 11:19:43;;;;;;;16.05;11.68;;;;;;;;;;5012747;28;20029;-63
2022/06/17 11:22:17;;;;;;;17.25;12.10;;;;;;;;;;5012930;28;20026;-62
2022/06/17 11:24:43;;;;;;;15.73;11.45;;;;;;;;;;5012888;28;20038;-61
2022/06/17 11:27:23;;;;;;;15.57;11.43;;;;;;;;;;5012643;28;20029;-62
2022/06/17 11:29:50;;;;;;;16.75;11.50;;;;;;;;;;5011190;28;20030;-63
2022/06/17 11:32:19;;;;;;;17.15;11.73;;;;;;;;;;5012757;28;20022;-64
2022/06/17 11:34:51;;;;;;;15.30;11.50;;;;;;;;;;5012485;28;20072;-62
2022/06/17 11:37:17;;;;;;;19.30;11.70;;;;;;;;;;5027272;28;20037;-63
2022/06/17 11:39:43;;;;;;;16.60;11.57;;;;;;;;;;5012308;28;20101;-61
2022/06/17 11:42:22;;;;;;;15.85;11.10;;;;;;;;;;5012072;28;20080;-62
2022/06/17 11:45:01;;;;;;;16.83;11.70;;;;;;;;;;5027513;28;20362;-62
2022/06/17 11:47:29;;;;;;;15.75;11.38;;;;;;;;;;5011517;28;20354;-61
2022/06/17 11:49:57;;;;;;;16.15;11.32;;;;;;;;;;5027187;28;20030;-61
2022/06/17 11:52:29;;;;;;;16.08;11.27;;;;;;;;;;5012485;28;20371;-61
2022/06/17 11:54:55;;;;;;;15.57;10.43;;;;;;;;;;5011900;28;20100;-61
2022/06/17 11:57:24;;;;;;;15.57;10.80;;;;;;;;;;5026698;28;20116;-62
2022/06/17 11:59:53;;;;;;;14.77;11.07;;;;;;;;;;5012243;28;20026;-62
2022/06/17 12:02:19;;;;;;;17.00;11.15;;;;;;;;;;5011533;28;20102;-62
2022/06/17 12:04:48;;;;;;;16.27;11.00;;;;;;;;;;5012048;28;20029;-63
2022/06/17 12:07:28;;;;;;;16.88;11.20;;;;;;;;;;5026578;28;20026;-60
2022/06/17 12:10:17;;;;;;;15.65;11.10;;;;;;;;;;5026869;28;20528;-62
2022/06/17 12:12:43;;;;;;;15.73;11.00;;;;;;;;;;4983588;28;20033;-61
2022/06/17 12:15:12;;;;;;;18.05;11.50;;;;;;;;;;5012115;28;20052;-61
2022/06/17 12:17:39;;;;;;;15.60;11.15;;;;;;;;;;5026539;28;20026;-61
2022/06/17 12:20:23;;;;;;;16.20;11.82;;;;;;;;;;5012138;28;20057;-61
2022/06/17 12:23:03;;;;;;;18.45;11.80;;;;;;;;;;5011996;28;20108;-62
2022/06/17 12:25:41;;;;;;;17.00;11.40;;;;;;;;;;5026977;28;20117;-62
2022/06/17 12:28:17;;;;;;;16.35;11.75;;;;;;;;;;5011060;28;20026;-62
2022/06/17 12:30:46;;;;;;;16.25;12.00;;;;;;;;;;5025403;28;20022;-62
2022/06/17 12:33:31;;;;;;;18.48;12.43;;;;;;;;;;5011988;28;20018;-61
2022/06/17 12:35:57;;;;;;;16.80;12.57;;;;;;;;;;5045384;23;20049;-62
2022/06/17 12:38:49;;;;;;;16.98;11.93;;;;;;;;;;5030141;28;20036;-64
2022/06/17 12:41:15;;;;;;;16.98;12.52;;;;;;;;;;5007819;28;20053;-64
2022/06/17 12:44:00;;;;;;;16.73;12.60;;;;;;;;;;5029245;28;20045;-63
2022/06/17 12:46:49;;;;;;;16.90;11.65;;;;;;;;;;5030364;28;20029;-63
2022/06/17 12:55:29;;;;;;;17.33;12.55;;;;;;;;;;5030566;28;20102;-63
2022/06/17 12:57:55;;;;;;;16.20;12.63;;;;;;;;;;5030167;28;20026;-63
2022/06/17 13:00:28;;;;;;;16.63;12.30;;;;;;;;;;5030774;28;20030;-64
2022/06/17 13:03:06;;;;;;;16.50;12.70;;;;;;;;;;5030864;28;20053;-64
2022/06/17 13:05:32;;;;;;;18.05;12.38;;;;;;;;;;5030412;28;20383;-63
2022/06/17 13:07:58;;;;;;;16.83;12.35;;;;;;;;;;5029842;28;20032;-62
2022/06/17 13:10:42;;;;;;;16.92;12.40;;;;;;;;;;5030338;28;20374;-63
2022/06/17 13:13:14;;;;;;;19.85;12.30;;;;;;;;;;5031046;28;20032;-63
2022/06/17 13:16:06;;;;;;;16.13;11.70;;;;;;;;;;5033927;28;20018;-64
2022/06/17 13:18:32;;;;;;;15.60;11.88;;;;;;;;;;5010034;28;20277;-64
2022/06/17 13:21:30;;;;;;;17.23;12.18;;;;;;;;;;5034259;28;20482;-63
2022/06/17 13:23:59;;;;;;;16.95;11.52;;;;;;;;;;5011333;28;20333;-63
2022/06/17 13:26:35;;;;;;;16.42;11.70;;;;;;;;;;5033950;28;20022;-64
2022/06/17 13:29:03;;;;;;;15.63;11.80;;;;;;;;;;5033172;28;20033;-63
2022/06/17 13:31:55;;;;;;;16.10;11.30;;;;;;;;;;5032464;28;20120;-64
2022/06/17 13:34:30;;;;;;;16.48;11.40;;;;;;;;;;5031861;28;20053;-64
2022/06/17 13:37:12;;;;;;;16.75;11.30;;;;;;;;;;5033824;28;20565;-63
2022/06/17 13:39:41;;;;;;;17.83;10.75;;;;;;;;;;5034108;28;20064;-63
2022/06/17 13:42:09;;;;;;;15.70;10.95;;;;;;;;;;5034395;28;20113;-66
2022/06/17 13:44:45;;;;;;;14.82;10.27;;;;;;;;;;5034034;28;20028;-64
2022/06/17 13:47:16;;;;;;;15.38;10.70;;;;;;;;;;5033050;28;20585;-64
2022/06/17 13:50:03;;;;;;;14.50;10.55;;;;;;;;;;5033388;28;20091;-62
2022/06/17 13:52:35;;;;;;;16.35;11.80;;;;;;;;;;5033719;28;20496;-63
2022/06/17 13:55:05;;;;;;;14.80;10.82;;;;;;;;;;5033635;28;20033;-64
2022/06/17 13:57:39;;;;;;;17.60;11.60;;;;;;;;;;5032581;28;20133;-64
2022/06/17 14:00:20;;;;;;;15.88;11.80;;;;;;;;;;5033463;28;20033;-64
2022/06/17 14:02:52;;;;;;;15.95;11.23;;;;;;;;;;5033931;28;20030;-64
2022/06/17 14:05:33;;;;;;;17.02;11.20;;;;;;;;;;5033281;28;20128;-64
2022/06/17 14:08:01;;;;;;;15.20;11.40;;;;;;;;;;5031930;28;20025;-63
2022/06/17 14:10:29;;;;;;;16.70;11.90;;;;;;;;;;5033054;28;20045;-64
2022/06/17 14:12:55;;;;;;;16.42;12.00;;;17.20;99.90;;;;;;5033441;28;20053;-64
2022/06/17 14:15:26;;;;;;;15.65;11.88;;;;;;;;;;5032258;28;20120;-63
2022/06/17 14:17:55;;;;;;;16.10;11.45;;;;;;;;;;5031554;28;20497;-63
2022/06/17 14:20:24;;;;;;;18.05;11.88;;;;;;;;;;5033696;28;20029;-64
2022/06/17 14:23:08;;;;;;;16.05;12.18;;;;;;;;;;5032273;28;20071;-64
2022/06/17 14:25:57;;;;;;;15.20;11.52;;;;;;;;;;5033008;28;20040;-64
2022/06/17 14:28:46;;;;;;;16.20;11.80;;;;;;;;;;5032006;28;20026;-63
2022/06/17 14:31:21;;;;;;;16.33;11.90;;;;;;;;;;5025801;28;20056;-63
2022/06/17 14:33:50;;;;;;;15.23;12.20;;;;;;;;;;5033082;28;20025;-64
2022/06/17 14:36:18;;;;;;;16.77;12.40;;;;;;;;;;5032900;28;20033;-63
2022/06/17 14:39:00;;;;;;;15.43;12.38;;;;;;;;;;5032185;28;20474;-64
2022/06/17 14:44:34;;;;;;;16.35;12.50;;;;;;;;;;5032825;28;20504;-63
2022/06/17 14:47:21;;;;;;;15.95;12.60;;;;;;;;;;5032732;28;20017;-64
2022/06/17 14:49:56;;;;;;;15.60;12.35;;;;;;;;;;5032542;28;20079;-63
2022/06/17 14:52:27;;;;;;;16.48;12.45;;;;;;;;;;5032717;28;20103;-64
2022/06/17 14:55:06;;;;;;;16.17;12.07;;;;;;;;;;5032254;28;20100;-64